sensor_id;sensor_type;location;lat;lon;timestamp;P1;durP1;ratioP1;P2;durP2;ratioP2
70426;SDS011;57872;55.432;37.248;2023-05-17T00:00:57;13.90;;;6.40;;
70426;SDS011;57872;55.432;37.248;2023-05-17T00:05:57;14.15;;;6.50;;
70426;SDS011;57872;55.432;37.248;2023-05-17T00:10:58;9.32;;;5.82;;
70426;SDS011;57872;55.432;37.248;2023-05-17T00:15:59;10.43;;;5.70;;
70426;SDS011;57872;55.432;37.248;2023-05-17T00:21:00;9.20;;;5.60;;
70426;SDS011;57872;55.432;37.248;2023-05-17T00:26:00;13.00;;;5.43;;
70426;SDS011;57872;55.432;37.248;2023-05-17T00:31:01;12.98;;;5.15;;
70426;SDS011;57872;55.432;37.248;2023-05-17T00:36:03;10.38;;;6.25;;
70426;SDS011;57872;55.432;37.248;2023-05-17T00:41:04;11.57;;;5.55;;
70426;SDS011;57872;55.432;37.248;2023-05-17T00:46:05;12.73;;;5.68;;
70426;SDS011;57872;55.432;37.248;2023-05-17T00:51:06;12.38;;;6.00;;
70426;SDS011;57872;55.432;37.248;2023-05-17T00:56:07;13.88;;;6.03;;
70426;SDS011;57872;55.432;37.248;2023-05-17T01:01:08;12.45;;;6.15;;
70426;SDS011;57872;55.432;37.248;2023-05-17T01:06:31;10.32;;;5.28;;
70426;SDS011;57872;55.432;37.248;2023-05-17T01:11:41;13.07;;;5.75;;
70426;SDS011;57872;55.432;37.248;2023-05-17T01:16:56;13.30;;;6.20;;
70426;SDS011;57872;55.432;37.248;2023-05-17T01:27:35;20.90;;;6.38;;
70426;SDS011;57872;55.432;37.248;2023-05-17T01:32:35;14.00;;;6.28;;
70426;SDS011;57872;55.432;37.248;2023-05-17T01:37:39;11.32;;;5.47;;
70426;SDS011;57872;55.432;37.248;2023-05-17T01:42:40;11.65;;;5.38;;
70426;SDS011;57872;55.432;37.248;2023-05-17T01:53:45;13.52;;;5.40;;
70426;SDS011;57872;55.432;37.248;2023-05-17T01:58:48;14.23;;;5.85;;
70426;SDS011;57872;55.432;37.248;2023-05-17T02:03:51;12.38;;;5.85;;
70426;SDS011;57872;55.432;37.248;2023-05-17T02:08:52;10.73;;;5.50;;
70426;SDS011;57872;55.432;37.248;2023-05-17T02:13:53;14.02;;;5.75;;
70426;SDS011;57872;55.432;37.248;2023-05-17T02:18:54;9.70;;;5.82;;
70426;SDS011;57872;55.432;37.248;2023-05-17T02:23:55;10.90;;;5.80;;
70426;SDS011;57872;55.432;37.248;2023-05-17T02:28:56;12.10;;;5.20;;
70426;SDS011;57872;55.432;37.248;2023-05-17T02:33:57;11.52;;;5.78;;
70426;SDS011;57872;55.432;37.248;2023-05-17T02:38:58;19.08;;;6.13;;
70426;SDS011;57872;55.432;37.248;2023-05-17T02:43:58;14.27;;;6.00;;
70426;SDS011;57872;55.432;37.248;2023-05-17T02:49:00;11.45;;;5.80;;
70426;SDS011;57872;55.432;37.248;2023-05-17T02:54:00;11.18;;;5.60;;
70426;SDS011;57872;55.432;37.248;2023-05-17T02:59:01;11.98;;;5.07;;
70426;SDS011;57872;55.432;37.248;2023-05-17T03:04:03;12.82;;;4.93;;
70426;SDS011;57872;55.432;37.248;2023-05-17T03:09:04;9.75;;;5.20;;
70426;SDS011;57872;55.432;37.248;2023-05-17T03:14:06;11.73;;;5.30;;
70426;SDS011;57872;55.432;37.248;2023-05-17T03:19:07;11.07;;;4.95;;
70426;SDS011;57872;55.432;37.248;2023-05-17T03:24:17;13.65;;;5.25;;
70426;SDS011;57872;55.432;37.248;2023-05-17T03:29:18;10.80;;;4.50;;
70426;SDS011;57872;55.432;37.248;2023-05-17T03:34:19;10.10;;;3.78;;
70426;SDS011;57872;55.432;37.248;2023-05-17T03:39:19;10.35;;;4.47;;
70426;SDS011;57872;55.432;37.248;2023-05-17T03:44:20;12.27;;;3.97;;
70426;SDS011;57872;55.432;37.248;2023-05-17T03:49:22;11.00;;;4.75;;
70426;SDS011;57872;55.432;37.248;2023-05-17T03:54:24;9.93;;;4.18;;
70426;SDS011;57872;55.432;37.248;2023-05-17T03:59:25;8.85;;;4.05;;
70426;SDS011;57872;55.432;37.248;2023-05-17T04:04:26;9.07;;;4.97;;
70426;SDS011;57872;55.432;37.248;2023-05-17T04:09:27;12.15;;;5.60;;
70426;SDS011;57872;55.432;37.248;2023-05-17T04:14:27;10.88;;;5.55;;
70426;SDS011;57872;55.432;37.248;2023-05-17T04:19:29;10.60;;;4.88;;
70426;SDS011;57872;55.432;37.248;2023-05-17T04:24:30;12.55;;;4.00;;
70426;SDS011;57872;55.432;37.248;2023-05-17T04:29:31;8.18;;;3.63;;
70426;SDS011;57872;55.432;37.248;2023-05-17T04:34:33;10.25;;;3.53;;
70426;SDS011;57872;55.432;37.248;2023-05-17T04:39:35;7.20;;;3.28;;
70426;SDS011;57872;55.432;37.248;2023-05-17T04:44:36;7.82;;;3.30;;
70426;SDS011;57872;55.432;37.248;2023-05-17T04:49:38;8.30;;;3.17;;
70426;SDS011;57872;55.432;37.248;2023-05-17T04:54:38;6.05;;;3.22;;
70426;SDS011;57872;55.432;37.248;2023-05-17T04:59:39;9.82;;;3.30;;
70426;SDS011;57872;55.432;37.248;2023-05-17T05:04:41;7.10;;;2.97;;
70426;SDS011;57872;55.432;37.248;2023-05-17T05:09:43;8.18;;;3.08;;
70426;SDS011;57872;55.432;37.248;2023-05-17T05:14:45;8.32;;;2.92;;
70426;SDS011;57872;55.432;37.248;2023-05-17T05:19:46;6.93;;;2.70;;
70426;SDS011;57872;55.432;37.248;2023-05-17T05:24:47;7.28;;;2.85;;
70426;SDS011;57872;55.432;37.248;2023-05-17T05:29:48;6.57;;;2.88;;
70426;SDS011;57872;55.432;37.248;2023-05-17T05:34:49;7.85;;;2.40;;
70426;SDS011;57872;55.432;37.248;2023-05-17T05:39:50;8.50;;;2.53;;
70426;SDS011;57872;55.432;37.248;2023-05-17T05:44:50;6.28;;;2.90;;
70426;SDS011;57872;55.432;37.248;2023-05-17T05:49:52;7.90;;;2.47;;
70426;SDS011;57872;55.432;37.248;2023-05-17T05:54:53;4.82;;;2.08;;
70426;SDS011;57872;55.432;37.248;2023-05-17T05:59:54;7.05;;;2.03;;
70426;SDS011;57872;55.432;37.248;2023-05-17T06:04:54;6.60;;;2.20;;
70426;SDS011;57872;55.432;37.248;2023-05-17T06:09:55;8.75;;;2.05;;
70426;SDS011;57872;55.432;37.248;2023-05-17T06:14:56;5.72;;;2.25;;
70426;SDS011;57872;55.432;37.248;2023-05-17T06:19:57;6.07;;;1.70;;
70426;SDS011;57872;55.432;37.248;2023-05-17T06:24:57;5.40;;;1.80;;
70426;SDS011;57872;55.432;37.248;2023-05-17T06:29:58;4.10;;;1.40;;
70426;SDS011;57872;55.432;37.248;2023-05-17T06:35:00;5.40;;;1.70;;
70426;SDS011;57872;55.432;37.248;2023-05-17T06:40:01;6.15;;;1.40;;
70426;SDS011;57872;55.432;37.248;2023-05-17T06:45:04;6.43;;;1.98;;
70426;SDS011;57872;55.432;37.248;2023-05-17T06:50:06;4.20;;;1.30;;
70426;SDS011;57872;55.432;37.248;2023-05-17T06:55:08;5.18;;;1.50;;
70426;SDS011;57872;55.432;37.248;2023-05-17T07:00:08;6.38;;;1.80;;
70426;SDS011;57872;55.432;37.248;2023-05-17T07:05:10;4.40;;;1.40;;
70426;SDS011;57872;55.432;37.248;2023-05-17T07:10:10;7.07;;;1.67;;
70426;SDS011;57872;55.432;37.248;2023-05-17T07:15:11;15.32;;;3.15;;
70426;SDS011;57872;55.432;37.248;2023-05-17T07:20:12;5.90;;;1.48;;
70426;SDS011;57872;55.432;37.248;2023-05-17T07:25:13;6.67;;;1.77;;
70426;SDS011;57872;55.432;37.248;2023-05-17T07:30:15;5.83;;;1.60;;
70426;SDS011;57872;55.432;37.248;2023-05-17T07:35:16;5.43;;;1.50;;
70426;SDS011;57872;55.432;37.248;2023-05-17T07:40:19;4.47;;;1.60;;
70426;SDS011;57872;55.432;37.248;2023-05-17T07:45:21;5.35;;;1.50;;
70426;SDS011;57872;55.432;37.248;2023-05-17T07:50:21;3.75;;;1.40;;
70426;SDS011;57872;55.432;37.248;2023-05-17T07:55:22;4.25;;;1.38;;
70426;SDS011;57872;55.432;37.248;2023-05-17T08:00:23;5.72;;;1.60;;
70426;SDS011;57872;55.432;37.248;2023-05-17T08:05:24;6.23;;;2.10;;
70426;SDS011;57872;55.432;37.248;2023-05-17T08:10:26;4.85;;;1.60;;
70426;SDS011;57872;55.432;37.248;2023-05-17T08:15:27;4.88;;;1.60;;
70426;SDS011;57872;55.432;37.248;2023-05-17T08:20:28;8.17;;;2.10;;
70426;SDS011;57872;55.432;37.248;2023-05-17T08:25:29;6.53;;;1.92;;
70426;SDS011;57872;55.432;37.248;2023-05-17T08:30:30;5.43;;;1.70;;
70426;SDS011;57872;55.432;37.248;2023-05-17T08:35:31;5.22;;;1.70;;
70426;SDS011;57872;55.432;37.248;2023-05-17T08:40:34;6.10;;;2.08;;
70426;SDS011;57872;55.432;37.248;2023-05-17T08:45:36;7.87;;;1.97;;
70426;SDS011;57872;55.432;37.248;2023-05-17T08:50:37;5.53;;;1.73;;
70426;SDS011;57872;55.432;37.248;2023-05-17T08:56:16;7.28;;;1.88;;
70426;SDS011;57872;55.432;37.248;2023-05-17T09:01:21;5.80;;;1.92;;
70426;SDS011;57872;55.432;37.248;2023-05-17T09:06:23;10.48;;;2.83;;
70426;SDS011;57872;55.432;37.248;2023-05-17T09:11:28;7.28;;;2.00;;
70426;SDS011;57872;55.432;37.248;2023-05-17T09:16:31;6.28;;;1.70;;
70426;SDS011;57872;55.432;37.248;2023-05-17T09:21:36;6.15;;;1.83;;
70426;SDS011;57872;55.432;37.248;2023-05-17T09:26:38;10.00;;;2.33;;
70426;SDS011;57872;55.432;37.248;2023-05-17T09:31:40;5.22;;;1.80;;
70426;SDS011;57872;55.432;37.248;2023-05-17T09:36:42;6.50;;;1.80;;
70426;SDS011;57872;55.432;37.248;2023-05-17T09:41:44;5.78;;;1.73;;
70426;SDS011;57872;55.432;37.248;2023-05-17T09:46:50;8.38;;;2.00;;
70426;SDS011;57872;55.432;37.248;2023-05-17T09:51:52;4.85;;;1.83;;
70426;SDS011;57872;55.432;37.248;2023-05-17T09:56:53;7.20;;;2.10;;
70426;SDS011;57872;55.432;37.248;2023-05-17T10:01:58;6.90;;;1.90;;
70426;SDS011;57872;55.432;37.248;2023-05-17T10:07:00;4.85;;;1.88;;
70426;SDS011;57872;55.432;37.248;2023-05-17T10:12:01;5.45;;;2.10;;
70426;SDS011;57872;55.432;37.248;2023-05-17T10:17:05;4.85;;;2.00;;
70426;SDS011;57872;55.432;37.248;2023-05-17T10:22:06;8.95;;;2.40;;
70426;SDS011;57872;55.432;37.248;2023-05-17T10:27:07;4.70;;;1.80;;
70426;SDS011;57872;55.432;37.248;2023-05-17T10:32:09;6.72;;;1.90;;
70426;SDS011;57872;55.432;37.248;2023-05-17T10:37:13;8.63;;;1.77;;
70426;SDS011;57872;55.432;37.248;2023-05-17T10:42:14;6.18;;;2.63;;
70426;SDS011;57872;55.432;37.248;2023-05-17T10:47:17;8.35;;;1.98;;
70426;SDS011;57872;55.432;37.248;2023-05-17T10:52:20;7.57;;;2.10;;
70426;SDS011;57872;55.432;37.248;2023-05-17T10:57:33;6.57;;;2.40;;
70426;SDS011;57872;55.432;37.248;2023-05-17T11:02:38;7.90;;;2.42;;
70426;SDS011;57872;55.432;37.248;2023-05-17T11:13:24;6.97;;;2.72;;
70426;SDS011;57872;55.432;37.248;2023-05-17T11:18:26;9.57;;;2.50;;
70426;SDS011;57872;55.432;37.248;2023-05-17T11:23:28;4.83;;;1.90;;
70426;SDS011;57872;55.432;37.248;2023-05-17T11:28:39;7.43;;;2.38;;
70426;SDS011;57872;55.432;37.248;2023-05-17T11:33:44;6.88;;;1.92;;
70426;SDS011;57872;55.432;37.248;2023-05-17T11:44:09;7.13;;;2.35;;
70426;SDS011;57872;55.432;37.248;2023-05-17T11:49:10;9.52;;;2.67;;
70426;SDS011;57872;55.432;37.248;2023-05-17T11:54:11;6.23;;;2.43;;
70426;SDS011;57872;55.432;37.248;2023-05-17T11:59:18;5.97;;;1.90;;
70426;SDS011;57872;55.432;37.248;2023-05-17T12:04:36;6.57;;;2.17;;
70426;SDS011;57872;55.432;37.248;2023-05-17T12:09:37;7.57;;;2.05;;
70426;SDS011;57872;55.432;37.248;2023-05-17T12:14:41;6.78;;;1.88;;
70426;SDS011;57872;55.432;37.248;2023-05-17T12:19:43;6.30;;;1.92;;
70426;SDS011;57872;55.432;37.248;2023-05-17T12:24:44;6.03;;;1.97;;
70426;SDS011;57872;55.432;37.248;2023-05-17T12:29:46;6.00;;;2.10;;
70426;SDS011;57872;55.432;37.248;2023-05-17T12:34:47;7.57;;;2.53;;
70426;SDS011;57872;55.432;37.248;2023-05-17T12:39:51;6.45;;;2.13;;
70426;SDS011;57872;55.432;37.248;2023-05-17T12:44:59;6.82;;;2.10;;
70426;SDS011;57872;55.432;37.248;2023-05-17T12:50:00;4.68;;;1.98;;
70426;SDS011;57872;55.432;37.248;2023-05-17T12:55:02;6.97;;;2.28;;
70426;SDS011;57872;55.432;37.248;2023-05-17T13:00:04;6.10;;;2.30;;
70426;SDS011;57872;55.432;37.248;2023-05-17T13:10:21;8.48;;;2.10;;
70426;SDS011;57872;55.432;37.248;2023-05-17T13:15:29;6.10;;;2.13;;
70426;SDS011;57872;55.432;37.248;2023-05-17T13:21:00;6.53;;;2.60;;
70426;SDS011;57872;55.432;37.248;2023-05-17T13:26:16;14.18;;;5.07;;
70426;SDS011;57872;55.432;37.248;2023-05-17T13:36:42;6.63;;;2.85;;
70426;SDS011;57872;55.432;37.248;2023-05-17T13:41:43;7.27;;;2.93;;
70426;SDS011;57872;55.432;37.248;2023-05-17T13:46:46;7.47;;;2.58;;
70426;SDS011;57872;55.432;37.248;2023-05-17T13:51:47;8.17;;;2.53;;
70426;SDS011;57872;55.432;37.248;2023-05-17T13:56:48;7.00;;;2.38;;
70426;SDS011;57872;55.432;37.248;2023-05-17T14:01:50;24.23;;;17.60;;
70426;SDS011;57872;55.432;37.248;2023-05-17T14:06:53;7.15;;;2.92;;
70426;SDS011;57872;55.432;37.248;2023-05-17T14:11:54;11.07;;;3.17;;
70426;SDS011;57872;55.432;37.248;2023-05-17T14:16:56;11.57;;;2.90;;
70426;SDS011;57872;55.432;37.248;2023-05-17T14:22:00;7.45;;;2.20;;
70426;SDS011;57872;55.432;37.248;2023-05-17T14:27:01;9.18;;;4.60;;
70426;SDS011;57872;55.432;37.248;2023-05-17T14:32:02;6.27;;;2.53;;
70426;SDS011;57872;55.432;37.248;2023-05-17T14:37:03;6.55;;;2.40;;
70426;SDS011;57872;55.432;37.248;2023-05-17T14:42:04;6.15;;;2.30;;
70426;SDS011;57872;55.432;37.248;2023-05-17T14:47:06;6.57;;;2.40;;
70426;SDS011;57872;55.432;37.248;2023-05-17T14:52:10;6.13;;;2.00;;
70426;SDS011;57872;55.432;37.248;2023-05-17T14:57:11;5.57;;;2.20;;
70426;SDS011;57872;55.432;37.248;2023-05-17T15:02:33;8.38;;;3.53;;
70426;SDS011;57872;55.432;37.248;2023-05-17T15:07:35;7.40;;;2.25;;
70426;SDS011;57872;55.432;37.248;2023-05-17T15:12:39;6.57;;;2.15;;
70426;SDS011;57872;55.432;37.248;2023-05-17T15:17:42;7.25;;;2.67;;
70426;SDS011;57872;55.432;37.248;2023-05-17T15:22:43;6.53;;;2.25;;
70426;SDS011;57872;55.432;37.248;2023-05-17T15:27:44;8.30;;;2.70;;
70426;SDS011;57872;55.432;37.248;2023-05-17T15:32:45;6.68;;;2.50;;
70426;SDS011;57872;55.432;37.248;2023-05-17T15:37:56;10.45;;;2.30;;
70426;SDS011;57872;55.432;37.248;2023-05-17T15:42:57;9.77;;;2.88;;
70426;SDS011;57872;55.432;37.248;2023-05-17T15:47:58;5.13;;;2.13;;
70426;SDS011;57872;55.432;37.248;2023-05-17T15:53:01;8.27;;;2.30;;
70426;SDS011;57872;55.432;37.248;2023-05-17T15:58:13;10.55;;;2.70;;
70426;SDS011;57872;55.432;37.248;2023-05-17T16:03:25;8.85;;;2.70;;
70426;SDS011;57872;55.432;37.248;2023-05-17T16:08:31;8.55;;;2.30;;
70426;SDS011;57872;55.432;37.248;2023-05-17T16:13:35;8.93;;;2.13;;
70426;SDS011;57872;55.432;37.248;2023-05-17T16:18:36;8.07;;;2.75;;
70426;SDS011;57872;55.432;37.248;2023-05-17T16:23:36;7.35;;;2.75;;
70426;SDS011;57872;55.432;37.248;2023-05-17T16:28:37;7.55;;;2.10;;
70426;SDS011;57872;55.432;37.248;2023-05-17T16:33:38;14.30;;;3.65;;
70426;SDS011;57872;55.432;37.248;2023-05-17T16:38:40;11.32;;;3.45;;
70426;SDS011;57872;55.432;37.248;2023-05-17T16:43:44;11.90;;;4.05;;
70426;SDS011;57872;55.432;37.248;2023-05-17T16:48:45;15.30;;;4.90;;
70426;SDS011;57872;55.432;37.248;2023-05-17T16:53:46;9.27;;;3.38;;
70426;SDS011;57872;55.432;37.248;2023-05-17T16:58:47;10.73;;;3.30;;
70426;SDS011;57872;55.432;37.248;2023-05-17T17:03:48;9.25;;;4.07;;
70426;SDS011;57872;55.432;37.248;2023-05-17T17:08:48;11.13;;;3.97;;
70426;SDS011;57872;55.432;37.248;2023-05-17T17:13:49;11.25;;;4.03;;
70426;SDS011;57872;55.432;37.248;2023-05-17T17:18:50;11.60;;;4.43;;
70426;SDS011;57872;55.432;37.248;2023-05-17T17:23:51;9.50;;;3.53;;
70426;SDS011;57872;55.432;37.248;2023-05-17T17:28:52;9.93;;;4.25;;
70426;SDS011;57872;55.432;37.248;2023-05-17T17:33:52;8.98;;;3.90;;
70426;SDS011;57872;55.432;37.248;2023-05-17T17:38:56;12.40;;;5.35;;
70426;SDS011;57872;55.432;37.248;2023-05-17T17:43:56;10.82;;;4.32;;
70426;SDS011;57872;55.432;37.248;2023-05-17T17:48:57;12.10;;;4.78;;
70426;SDS011;57872;55.432;37.248;2023-05-17T17:53:58;8.07;;;4.05;;
70426;SDS011;57872;55.432;37.248;2023-05-17T17:58:58;8.60;;;4.30;;
70426;SDS011;57872;55.432;37.248;2023-05-17T18:03:59;10.20;;;4.43;;
70426;SDS011;57872;55.432;37.248;2023-05-17T18:09:00;8.52;;;4.05;;
70426;SDS011;57872;55.432;37.248;2023-05-17T18:14:01;9.75;;;3.80;;
70426;SDS011;57872;55.432;37.248;2023-05-17T18:19:02;9.35;;;3.97;;
70426;SDS011;57872;55.432;37.248;2023-05-17T18:24:02;8.82;;;4.80;;
70426;SDS011;57872;55.432;37.248;2023-05-17T18:29:03;10.23;;;5.00;;
70426;SDS011;57872;55.432;37.248;2023-05-17T18:34:04;18.25;;;10.38;;
70426;SDS011;57872;55.432;37.248;2023-05-17T18:39:05;19.60;;;7.38;;
70426;SDS011;57872;55.432;37.248;2023-05-17T18:44:06;12.27;;;5.00;;
70426;SDS011;57872;55.432;37.248;2023-05-17T18:49:06;15.02;;;5.75;;
70426;SDS011;57872;55.432;37.248;2023-05-17T18:54:07;14.25;;;6.47;;
70426;SDS011;57872;55.432;37.248;2023-05-17T18:59:08;14.20;;;7.35;;
70426;SDS011;57872;55.432;37.248;2023-05-17T19:04:09;18.27;;;7.18;;
70426;SDS011;57872;55.432;37.248;2023-05-17T19:09:09;24.23;;;8.25;;
70426;SDS011;57872;55.432;37.248;2023-05-17T19:14:10;19.33;;;7.55;;
70426;SDS011;57872;55.432;37.248;2023-05-17T19:19:13;23.65;;;8.40;;
70426;SDS011;57872;55.432;37.248;2023-05-17T19:24:14;15.00;;;6.63;;
70426;SDS011;57872;55.432;37.248;2023-05-17T19:29:15;17.73;;;7.47;;
70426;SDS011;57872;55.432;37.248;2023-05-17T19:34:16;16.08;;;6.80;;
70426;SDS011;57872;55.432;37.248;2023-05-17T19:39:16;19.30;;;7.55;;
70426;SDS011;57872;55.432;37.248;2023-05-17T19:44:18;16.77;;;7.00;;
70426;SDS011;57872;55.432;37.248;2023-05-17T19:49:19;17.35;;;7.43;;
70426;SDS011;57872;55.432;37.248;2023-05-17T19:54:20;18.02;;;8.18;;
70426;SDS011;57872;55.432;37.248;2023-05-17T19:59:23;21.85;;;8.13;;
70426;SDS011;57872;55.432;37.248;2023-05-17T20:04:24;20.55;;;9.13;;
70426;SDS011;57872;55.432;37.248;2023-05-17T20:09:25;19.30;;;8.65;;
70426;SDS011;57872;55.432;37.248;2023-05-17T20:14:29;19.83;;;8.90;;
70426;SDS011;57872;55.432;37.248;2023-05-17T20:19:30;16.98;;;8.45;;
70426;SDS011;57872;55.432;37.248;2023-05-17T20:24:30;20.90;;;8.05;;
70426;SDS011;57872;55.432;37.248;2023-05-17T20:29:33;20.75;;;8.75;;
70426;SDS011;57872;55.432;37.248;2023-05-17T20:34:34;16.50;;;8.73;;
70426;SDS011;57872;55.432;37.248;2023-05-17T20:39:35;19.25;;;8.73;;
70426;SDS011;57872;55.432;37.248;2023-05-17T20:44:36;17.30;;;7.82;;
70426;SDS011;57872;55.432;37.248;2023-05-17T20:49:37;22.63;;;10.00;;
70426;SDS011;57872;55.432;37.248;2023-05-17T20:54:37;29.42;;;12.75;;
70426;SDS011;57872;55.432;37.248;2023-05-17T20:59:41;30.20;;;13.65;;
70426;SDS011;57872;55.432;37.248;2023-05-17T21:04:42;31.27;;;15.45;;
70426;SDS011;57872;55.432;37.248;2023-05-17T21:09:43;27.50;;;13.35;;
70426;SDS011;57872;55.432;37.248;2023-05-17T21:14:44;29.17;;;14.63;;
70426;SDS011;57872;55.432;37.248;2023-05-17T21:19:44;31.80;;;14.23;;
70426;SDS011;57872;55.432;37.248;2023-05-17T21:24:45;33.60;;;15.73;;
70426;SDS011;57872;55.432;37.248;2023-05-17T21:29:45;29.70;;;12.65;;
70426;SDS011;57872;55.432;37.248;2023-05-17T21:34:46;26.50;;;12.25;;
70426;SDS011;57872;55.432;37.248;2023-05-17T21:39:47;27.17;;;12.18;;
70426;SDS011;57872;55.432;37.248;2023-05-17T21:44:47;29.08;;;13.43;;
70426;SDS011;57872;55.432;37.248;2023-05-17T21:49:48;25.42;;;11.75;;
70426;SDS011;57872;55.432;37.248;2023-05-17T21:54:49;30.85;;;12.55;;
70426;SDS011;57872;55.432;37.248;2023-05-17T21:59:49;26.48;;;13.38;;
70426;SDS011;57872;55.432;37.248;2023-05-17T22:04:50;28.58;;;13.85;;
70426;SDS011;57872;55.432;37.248;2023-05-17T22:09:50;27.55;;;13.40;;
70426;SDS011;57872;55.432;37.248;2023-05-17T22:14:53;23.73;;;11.95;;
70426;SDS011;57872;55.432;37.248;2023-05-17T22:19:57;21.90;;;12.63;;
70426;SDS011;57872;55.432;37.248;2023-05-17T22:24:58;25.73;;;12.35;;
70426;SDS011;57872;55.432;37.248;2023-05-17T22:29:59;23.95;;;12.10;;
70426;SDS011;57872;55.432;37.248;2023-05-17T22:35:00;21.52;;;11.13;;
70426;SDS011;57872;55.432;37.248;2023-05-17T22:40:01;25.70;;;12.35;;
70426;SDS011;57872;55.432;37.248;2023-05-17T22:45:01;21.05;;;11.23;;
70426;SDS011;57872;55.432;37.248;2023-05-17T22:50:02;21.48;;;11.50;;
70426;SDS011;57872;55.432;37.248;2023-05-17T22:55:04;18.55;;;9.57;;
70426;SDS011;57872;55.432;37.248;2023-05-17T23:00:05;19.52;;;10.35;;
70426;SDS011;57872;55.432;37.248;2023-05-17T23:05:08;19.95;;;10.20;;
70426;SDS011;57872;55.432;37.248;2023-05-17T23:10:10;26.08;;;11.63;;
70426;SDS011;57872;55.432;37.248;2023-05-17T23:15:11;19.02;;;10.07;;
70426;SDS011;57872;55.432;37.248;2023-05-17T23:20:12;16.35;;;9.65;;
70426;SDS011;57872;55.432;37.248;2023-05-17T23:25:13;19.63;;;9.93;;
70426;SDS011;57872;55.432;37.248;2023-05-17T23:30:14;22.65;;;9.77;;
70426;SDS011;57872;55.432;37.248;2023-05-17T23:35:15;19.42;;;10.25;;
70426;SDS011;57872;55.432;37.248;2023-05-17T23:40:16;21.10;;;10.25;;
70426;SDS011;57872;55.432;37.248;2023-05-17T23:45:19;21.67;;;9.60;;
70426;SDS011;57872;55.432;37.248;2023-05-17T23:50:20;16.83;;;7.47;;
70426;SDS011;57872;55.432;37.248;2023-05-17T23:55:21;16.83;;;8.77;;
